Thunder radar more information blitzortung!


Radar de pluja more information rain snow radar


Visita la nostra xarxa de llocs de meteo:

Template documentation
and downloads

And another site



No particular awareness of the weather is required.    There are no Weather-warnings

Pagina Historial Weather Underground text

Diari Resum Marc 1, 2016 Unitats:  Mètric    Imperial   Tant
« Previous Dia
SegĂźent Dia »
Diari Setmana Mensual Anual Personalitzada
  Maxima: Minima: Media:
Temperatura: 17.3 °C 3.1 °C 12 °C
Punt de rosada: 0.9 °C -7.6 °C -1.2 °C
Humitat: 51 % 31 % 41 %
Wind Speed: 18.5 km/h 0.0 km/h 4.9 km/h
RĂ fegues de vent: 18.5 km/h - -
Vent:- - SSW
Pression baro: 1022.9 hPa 1018.8 hPa -
Precipitacions: 0.0 mm    
Historical Graphs
 
 
Dades de taula per Marc 1, 2016
Temps Temperatura Punt de rosada Pression baro Vent Wind Speed RĂ fegues de vent Humitat Rainfall Rate (Hourly)
00:05 4.5 °C -7.6 °C 1020.9 hPa Calm   3.2 km/h 41 % 0.0 mm
00:15 4.4 °C -7.4 °C 1020.9 hPa Calm   1.6 km/h 42 % 0.0 mm
00:25 4.2 °C -7.3 °C 1020.9 hPa NE 3.2 km/h 4.8 km/h 43 % 0.0 mm
00:35 4.1 °C -7.4 °C 1021.9 hPa Calm   3.2 km/h 43 % 0.0 mm
00:45 3.8 °C -7.3 °C 1021.9 hPa WSW 1.6 km/h 3.2 km/h 44 % 0.0 mm
00:55 3.8 °C -7.1 °C 1021.9 hPa Calm   3.2 km/h 45 % 0.0 mm
01:05 3.5 °C -7.3 °C 1022.9 hPa West 3.2 km/h 4.8 km/h 45 % 0.0 mm
01:15 3.2 °C -7.3 °C 1022.9 hPa WSW 1.6 km/h 3.2 km/h 46 % 0.0 mm
01:25 3.2 °C -7.1 °C 1021.9 hPa Calm   3.2 km/h 47 % 0.0 mm
01:35 3.2 °C -6.8 °C 1021.9 hPa West 1.6 km/h 3.2 km/h 48 % 0.0 mm
01:45 3.5 °C -6.2 °C 1021.9 hPa NNW 1.6 km/h 3.2 km/h 49 % 0.0 mm
01:55 3.1 °C -6.6 °C 1022.9 hPa NW 1.6 km/h 4.8 km/h 49 % 0.0 mm
02:15 4.0 °C -5.5 °C 1021.9 hPa SW 1.6 km/h 3.2 km/h 50 % 0.0 mm
02:25 4.8 °C -4.8 °C 1021.9 hPa NE 3.2 km/h 8.0 km/h 50 % 0.0 mm
02:35 5.3 °C -4.3 °C 1021.9 hPa NNE 3.2 km/h 3.2 km/h 50 % 0.0 mm
02:45 5.8 °C -3.8 °C 1021.9 hPa North 1.6 km/h 4.8 km/h 50 % 0.0 mm
02:55 6.0 °C -3.7 °C 1022.9 hPa WSW 1.6 km/h 4.8 km/h 50 % 0.0 mm
03:05 6.5 °C -3.2 °C 1022.9 hPa SSW 1.6 km/h 3.2 km/h 50 % 0.0 mm
03:15 7.0 °C -3.0 °C 1022.9 hPa NE 3.2 km/h 3.2 km/h 49 % 0.0 mm
03:25 7.3 °C -3.0 °C 1022.9 hPa NE 4.8 km/h 6.4 km/h 48 % 0.0 mm
03:35 7.9 °C -2.4 °C 1022.9 hPa NNE 1.6 km/h 6.4 km/h 48 % 0.0 mm
03:45 8.2 °C -2.2 °C 1022.9 hPa North 3.2 km/h 4.8 km/h 48 % 0.0 mm
03:55 8.8 °C -1.6 °C 1022.9 hPa NE 1.6 km/h 4.8 km/h 48 % 0.0 mm
04:25 9.6 °C -1.4 °C 1022.9 hPa East 3.2 km/h 4.8 km/h 46 % 0.0 mm
10:33 10.2 °C -0.9 °C 1022.9 hPa NE 3.7 km/h 4.2 km/h 46 % 0.0 mm
10:38 10.3 °C -0.8 °C 1022.9 hPa East 9.3 km/h 9.3 km/h 46 % 0.0 mm
10:43 10.6 °C -0.6 °C 1022.9 hPa ENE 4.7 km/h 4.7 km/h 46 % 0.0 mm
10:48 10.9 °C -0.3 °C 1022.9 hPa NNE 5.6 km/h 5.6 km/h 46 % 0.0 mm
10:53 11.2 °C 0.0 °C 1022.9 hPa NNE 3.7 km/h 5.3 km/h 46 % 0.0 mm
10:58 11.6 °C 0.3 °C 1022.9 hPa WSW 4.2 km/h 4.2 km/h 46 % 0.0 mm
11:03 12.0 °C 0.4 °C 1022.9 hPa ENE 3.7 km/h 4.2 km/h 45 % 0.0 mm
11:08 12.4 °C 0.4 °C 1022.9 hPa SSW 3.7 km/h 3.7 km/h 44 % 0.0 mm
11:13 12.5 °C 0.9 °C 1022.9 hPa WNW 16.7 km/h 16.7 km/h 45 % 0.0 mm
11:18 12.5 °C 0.2 °C 1022.9 hPa NE 5.6 km/h 5.6 km/h 43 % 0.0 mm
11:23 12.5 °C 0.2 °C 1022.9 hPa WNW 5.6 km/h 5.6 km/h 43 % 0.0 mm
11:28 12.5 °C 0.2 °C 1022.9 hPa West 5.6 km/h 5.6 km/h 43 % 0.0 mm
11:33 12.5 °C 0.2 °C 1022.9 hPa NW 4.2 km/h 4.2 km/h 43 % 0.0 mm
11:38 12.5 °C 0.2 °C 1022.9 hPa West 9.3 km/h 9.3 km/h 43 % 0.0 mm
11:43 12.5 °C 0.2 °C 1022.9 hPa SW 5.6 km/h 5.6 km/h 43 % 0.0 mm
11:48 12.5 °C 0.2 °C 1022.9 hPa WNW 9.3 km/h 9.3 km/h 43 % 0.0 mm
11:53 12.5 °C 0.2 °C 1022.9 hPa WSW 5.8 km/h 6.4 km/h 43 % 0.0 mm
11:58 12.5 °C 0.2 °C 1022.9 hPa NNE 9.3 km/h 9.3 km/h 43 % 0.0 mm
12:03 12.5 °C 0.2 °C 1022.9 hPa East 13.0 km/h 13.0 km/h 43 % 0.0 mm
12:08 12.5 °C 0.2 °C 1022.9 hPa NNE 4.2 km/h 4.2 km/h 43 % 0.0 mm
12:13 12.5 °C 0.2 °C 1022.9 hPa West 11.1 km/h 11.1 km/h 43 % 0.0 mm
12:18 12.5 °C 0.2 °C 1021.9 hPa WNW 8.7 km/h 8.7 km/h 43 % 0.0 mm
12:23 15.0 °C -0.3 °C 1021.9 hPa WSW 11.1 km/h 11.1 km/h 35 % 0.0 mm
12:28 15.0 °C -0.3 °C 1021.9 hPa WSW 13.0 km/h 13.0 km/h 35 % 0.0 mm
12:33 15.0 °C -0.3 °C 1021.9 hPa South 11.1 km/h 11.1 km/h 35 % 0.0 mm
12:38 15.0 °C -0.3 °C 1021.9 hPa WSW 5.8 km/h 7.2 km/h 35 % 0.0 mm
12:43 15.0 °C -0.3 °C 1021.9 hPa SW 9.3 km/h 9.3 km/h 35 % 0.0 mm
12:48 15.0 °C -0.3 °C 1021.9 hPa WSW 18.5 km/h 18.5 km/h 35 % 0.0 mm
12:53 15.2 °C -0.6 °C 1021.9 hPa WSW 13.0 km/h 13.0 km/h 34 % 0.0 mm
12:58 15.2 °C -0.6 °C 1021.9 hPa WSW 9.3 km/h 9.3 km/h 34 % 0.0 mm
13:03 15.7 °C 0.3 °C 1021.9 hPa SSW 9.3 km/h 9.3 km/h 35 % 0.0 mm
13:13 15.7 °C -0.1 °C 1021.9 hPa SW 9.3 km/h 9.3 km/h 34 % 0.0 mm
13:18 15.8 °C -0.1 °C 1021.9 hPa WSW 11.1 km/h 11.1 km/h 34 % 0.0 mm
13:23 16.1 °C 0.2 °C 1021.9 hPa WNW 7.4 km/h 7.4 km/h 34 % 0.0 mm
13:28 16.5 °C 0.6 °C 1021.9 hPa West 7.4 km/h 7.4 km/h 34 % 0.0 mm
13:33 16.5 °C 0.6 °C 1021.9 hPa West 9.3 km/h 9.5 km/h 34 % 0.0 mm
13:38 16.4 °C 0.5 °C 1021.9 hPa West 9.3 km/h 9.3 km/h 34 % 0.0 mm
13:43 16.5 °C 0.2 °C 1021.9 hPa WSW 14.0 km/h 14.0 km/h 33 % 0.0 mm
13:53 16.8 °C 0.4 °C 1021.9 hPa NW 7.4 km/h 7.4 km/h 33 % 0.0 mm
13:58 16.6 °C 0.2 °C 1021.9 hPa WSW 11.1 km/h 11.1 km/h 33 % 0.0 mm
14:03 16.6 °C 0.7 °C 1021.9 hPa West 9.3 km/h 9.3 km/h 34 % 0.0 mm
14:08 16.5 °C 0.2 °C 1021.9 hPa SW 9.3 km/h 9.3 km/h 33 % 0.0 mm
14:13 16.6 °C 0.7 °C 1021.9 hPa SSW 16.7 km/h 16.7 km/h 34 % 0.0 mm
14:18 16.8 °C 0.8 °C 1021.9 hPa West 14.8 km/h 14.8 km/h 34 % 0.0 mm
14:28 16.9 °C 0.9 °C 1021.9 hPa SSW 13.0 km/h 13.0 km/h 34 % 0.0 mm
14:33 17.0 °C 0.6 °C 1021.9 hPa WSW 14.8 km/h 14.8 km/h 33 % 0.0 mm
14:38 16.6 °C -0.2 °C 1021.9 hPa SSW 16.7 km/h 16.7 km/h 32 % 0.0 mm
14:43 16.9 °C 0.5 °C 1021.9 hPa West 7.4 km/h 7.4 km/h 33 % 0.0 mm
14:48 16.9 °C 0.1 °C 1021.9 hPa SW 13.0 km/h 13.0 km/h 32 % 0.0 mm
14:53 17.3 °C 0.4 °C 1021.9 hPa SW 5.6 km/h 5.8 km/h 32 % 0.0 mm
14:58 16.8 °C 0.0 °C 1021.9 hPa SW 9.3 km/h 9.3 km/h 32 % 0.0 mm
15:03 16.2 °C -0.6 °C 1021.9 hPa SSW 13.0 km/h 13.0 km/h 32 % 0.0 mm
15:08 16.2 °C -0.6 °C 1021.9 hPa WSW 16.7 km/h 16.7 km/h 32 % 0.0 mm
15:13 16.1 °C -0.2 °C 1021.9 hPa West 5.6 km/h 5.6 km/h 33 % 0.0 mm
15:18 15.8 °C -0.9 °C 1021.9 hPa WSW 13.0 km/h 13.0 km/h 32 % 0.0 mm
15:23 15.6 °C -1.1 °C 1021.9 hPa WSW 11.9 km/h 11.9 km/h 32 % 0.0 mm
15:28 15.2 °C -1.8 °C 1021.9 hPa SW 13.0 km/h 13.0 km/h 31 % 0.0 mm
15:33 14.9 °C -2.1 °C 1021.9 hPa WSW 14.8 km/h 14.8 km/h 31 % 0.0 mm
15:38 14.5 °C -2.4 °C 1021.9 hPa WSW 11.1 km/h 11.1 km/h 31 % 0.0 mm
15:43 14.4 °C -2.6 °C 1021.9 hPa WNW 9.3 km/h 9.3 km/h 31 % 0.0 mm
15:48 14.3 °C -2.6 °C 1021.9 hPa WSW 5.6 km/h 5.6 km/h 31 % 0.0 mm
15:53 14.3 °C -2.6 °C 1021.9 hPa ESE 5.6 km/h 5.6 km/h 31 % 0.0 mm
15:58 14.5 °C -2.0 °C 1021.9 hPa SW 7.4 km/h 7.4 km/h 32 % 0.0 mm
16:03 14.6 °C -1.9 °C 1021.9 hPa WNW 3.7 km/h 3.7 km/h 32 % 0.0 mm
16:08 14.6 °C -1.9 °C 1021.9 hPa WSW 5.6 km/h 5.6 km/h 32 % 0.0 mm
16:18 14.7 °C -1.8 °C 1021.9 hPa SW 7.4 km/h 7.4 km/h 32 % 0.0 mm
16:23 14.8 °C -1.8 °C 1021.9 hPa ENE 7.4 km/h 7.4 km/h 32 % 0.0 mm
16:28 14.8 °C -1.8 °C 1021.9 hPa WSW 7.4 km/h 7.4 km/h 32 % 0.0 mm
16:33 14.8 °C -1.8 °C 1021.9 hPa West 12.2 km/h 12.2 km/h 32 % 0.0 mm
16:38 14.8 °C -1.8 °C 1021.9 hPa West 2.6 km/h 3.2 km/h 32 % 0.0 mm
16:43 14.9 °C -1.7 °C 1021.9 hPa WNW 3.7 km/h 3.7 km/h 32 % 0.0 mm
16:48 15.0 °C -1.6 °C 1020.9 hPa WSW 3.9 km/h 3.9 km/h 32 % 0.0 mm
16:53 15.0 °C -1.6 °C 1020.9 hPa NNE 9.3 km/h 9.3 km/h 32 % 0.0 mm
16:58 15.1 °C -1.5 °C 1020.9 hPa ESE 5.6 km/h 5.6 km/h 32 % 0.0 mm
17:03 15.1 °C -1.5 °C 1021.9 hPa WNW 6.4 km/h 6.4 km/h 32 % 0.0 mm
17:08 15.0 °C -1.6 °C 1021.9 hPa West 3.7 km/h 3.7 km/h 32 % 0.0 mm
17:13 15.1 °C -1.5 °C 1021.9 hPa South 1.9 km/h 1.9 km/h 32 % 0.0 mm
17:15 11.7 °C 0.7 °C 1022.9 hPa WSW 3.2 km/h 8.0 km/h 47 % 0.0 mm
17:18 15.1 °C -1.1 °C 1021.9 hPa NW 1.9 km/h 1.9 km/h 33 % 0.0 mm
17:23 15.1 °C -1.1 °C 1021.9 hPa ENE 1.9 km/h   33 % 0.0 mm
17:25 11.6 °C 0.7 °C 1021.9 hPa West 3.2 km/h 3.2 km/h 47 % 0.0 mm
17:28 15.1 °C -1.1 °C 1021.9 hPa NNE 4.2 km/h 4.2 km/h 33 % 0.0 mm
17:33 15.2 °C -1.0 °C 1021.9 hPa WSW 3.7 km/h 3.7 km/h 33 % 0.0 mm
17:35 11.4 °C 0.5 °C 1021.9 hPa WSW 4.8 km/h 4.8 km/h 47 % 0.0 mm
17:38 15.3 °C -0.9 °C 1021.9 hPa West 3.7 km/h 3.7 km/h 33 % 0.0 mm
17:43 15.3 °C -0.9 °C 1021.9 hPa NNE 1.9 km/h 1.9 km/h 33 % 0.0 mm
17:45 11.2 °C 0.3 °C 1021.9 hPa Calm   6.4 km/h 47 % 0.0 mm
17:48 15.2 °C -1.0 °C 1020.9 hPa SW 3.7 km/h 3.7 km/h 33 % 0.0 mm
17:53 15.0 °C -1.2 °C 1020.9 hPa NNE 2.6 km/h 2.6 km/h 33 % 0.0 mm
17:55 10.9 °C 0.0 °C 1021.9 hPa SW 3.2 km/h 3.2 km/h 47 % 0.0 mm
17:58 14.7 °C -1.4 °C 1020.9 hPa NNE 3.7 km/h 3.7 km/h 33 % 0.0 mm
18:05 10.9 °C 0.0 °C 1021.9 hPa SW 3.2 km/h 4.8 km/h 47 % 0.0 mm
18:08 14.3 °C -1.8 °C 1021.9 hPa NW 3.7 km/h   33 % 0.0 mm
18:13 14.2 °C -1.9 °C 1021.9 hPa West 3.7 km/h 3.7 km/h 33 % 0.0 mm
18:15 10.7 °C -0.2 °C 1021.9 hPa WSW 3.2 km/h 3.2 km/h 47 % 0.0 mm
18:18 14.2 °C -1.4 °C 1021.9 hPa West 1.9 km/h   34 % 0.0 mm
18:23 14.2 °C -1.4 °C 1021.9 hPa WSW 3.9 km/h 3.9 km/h 34 % 0.0 mm
18:25 10.7 °C -0.2 °C 1021.9 hPa WSW 3.2 km/h 3.2 km/h 47 % 0.0 mm
18:28 14.1 °C -1.6 °C 1021.9 hPa SW 2.6 km/h 2.6 km/h 34 % 0.0 mm
18:33 14.0 °C -1.6 °C 1021.9 hPa Calm     34 % 0.0 mm
18:35 10.5 °C -0.3 °C 1021.9 hPa WSW 1.6 km/h 4.8 km/h 47 % 0.0 mm
18:38 14.0 °C -1.6 °C 1021.9 hPa WSW 3.7 km/h 3.7 km/h 34 % 0.0 mm
18:43 13.9 °C -1.7 °C 1021.9 hPa WNW 2.3 km/h 2.3 km/h 34 % 0.0 mm
18:45 10.4 °C -0.7 °C 1021.9 hPa West 1.6 km/h 3.2 km/h 46 % 0.0 mm
18:48 13.8 °C -1.8 °C 1021.9 hPa WSW 2.3 km/h 2.3 km/h 34 % 0.0 mm
18:53 13.8 °C -1.4 °C 1021.9 hPa WSW 5.6 km/h 5.6 km/h 35 % 0.0 mm
18:55 10.2 °C -0.9 °C 1021.9 hPa NW 1.6 km/h 3.2 km/h 46 % 0.0 mm
18:58 13.8 °C -1.4 °C 1021.9 hPa West 1.9 km/h   35 % 0.0 mm
19:03 13.7 °C -1.5 °C 1021.9 hPa WSW 3.7 km/h 3.7 km/h 35 % 0.0 mm
19:05 10.4 °C -0.7 °C 1021.9 hPa WNW 1.6 km/h 14.5 km/h 46 % 0.0 mm
19:08 13.7 °C -1.5 °C 1021.9 hPa WSW 3.7 km/h 3.7 km/h 35 % 0.0 mm
19:13 13.7 °C -1.5 °C 1021.9 hPa WSW 3.7 km/h 3.7 km/h 35 % 0.0 mm
19:15 10.1 °C -1.0 °C 1021.9 hPa West 3.2 km/h 3.2 km/h 46 % 0.0 mm
19:18 13.6 °C -1.2 °C 1021.9 hPa WSW 2.3 km/h   36 % 0.0 mm
19:23 13.6 °C -1.2 °C 1021.9 hPa West 3.7 km/h 3.7 km/h 36 % 0.0 mm
19:25 9.8 °C -1.0 °C 1021.9 hPa WSW 3.2 km/h 6.4 km/h 47 % 0.0 mm
19:28 13.5 °C -1.3 °C 1021.9 hPa WSW 2.6 km/h 2.6 km/h 36 % 0.0 mm
19:33 13.6 °C -1.2 °C 1021.9 hPa SW 3.7 km/h 3.7 km/h 36 % 0.0 mm
19:35 9.7 °C -1.4 °C 1022.9 hPa WSW 1.6 km/h 3.2 km/h 46 % 0.0 mm
19:38 13.6 °C -0.8 °C 1021.9 hPa West 4.2 km/h 5.8 km/h 37 % 0.0 mm
19:43 13.6 °C -0.8 °C 1021.9 hPa WNW 2.3 km/h 2.3 km/h 37 % 0.0 mm
19:45 9.6 °C -1.4 °C 1021.9 hPa West 1.6 km/h 3.2 km/h 46 % 0.0 mm
19:48 13.6 °C -0.8 °C 1021.9 hPa West 1.9 km/h 1.9 km/h 37 % 0.0 mm
19:55 9.5 °C -1.6 °C 1021.9 hPa Calm   1.6 km/h 46 % 0.0 mm
19:58 13.5 °C -0.6 °C 1021.9 hPa WNW 2.6 km/h 2.6 km/h 38 % 0.0 mm
20:03 13.5 °C -0.6 °C 1021.9 hPa Calm     38 % 0.0 mm
20:08 13.4 °C -0.7 °C 1021.9 hPa WSW 1.9 km/h 1.9 km/h 38 % 0.0 mm
20:13 13.3 °C -0.7 °C 1021.9 hPa WSW 3.7 km/h 3.7 km/h 38 % 0.0 mm
20:15 9.4 °C -1.3 °C 1021.9 hPa Calm   3.2 km/h 47 % 0.0 mm
20:18 13.1 °C -0.6 °C 1021.9 hPa WSW 3.7 km/h 3.7 km/h 39 % 0.0 mm
20:23 13.1 °C -0.6 °C 1021.9 hPa WNW 5.6 km/h 5.6 km/h 39 % 0.0 mm
20:25 9.2 °C -1.6 °C 1021.9 hPa Calm   3.2 km/h 47 % 0.0 mm
20:28 13.2 °C -0.4 °C 1021.9 hPa SW 1.9 km/h   39 % 0.0 mm
20:33 13.0 °C -0.7 °C 1021.9 hPa WSW 3.7 km/h 3.7 km/h 39 % 0.0 mm
20:35 9.1 °C -1.6 °C 1021.9 hPa NNE 1.6 km/h 1.6 km/h 47 % 0.0 mm
20:38 12.9 °C -0.7 °C 1021.9 hPa WSW 3.7 km/h 3.7 km/h 39 % 0.0 mm
20:43 12.9 °C -0.4 °C 1021.9 hPa WSW 3.7 km/h 3.7 km/h 40 % 0.0 mm
20:45 8.9 °C -1.6 °C 1021.9 hPa NE 1.6 km/h 3.2 km/h 48 % 0.0 mm
20:48 12.8 °C -0.5 °C 1021.9 hPa WSW 1.9 km/h 1.9 km/h 40 % 0.0 mm
20:53 12.6 °C -0.7 °C 1021.9 hPa WSW 3.7 km/h 3.7 km/h 40 % 0.0 mm
20:55 8.7 °C -1.7 °C 1021.9 hPa Calm   1.6 km/h 48 % 0.0 mm
20:58 12.5 °C -0.4 °C 1021.9 hPa SW 2.6 km/h 2.6 km/h 41 % 0.0 mm
21:03 12.4 °C -0.5 °C 1021.9 hPa WSW 5.6 km/h 5.6 km/h 41 % 0.0 mm
21:05 8.7 °C -1.4 °C 1021.9 hPa North 1.6 km/h 3.2 km/h 49 % 0.0 mm
21:08 12.3 °C -0.6 °C 1021.9 hPa Calm     41 % 0.0 mm
21:13 12.5 °C -0.1 °C 1021.9 hPa WSW 5.6 km/h 5.6 km/h 42 % 0.0 mm
21:15 8.6 °C -1.5 °C 1020.9 hPa Calm   1.6 km/h 49 % 0.0 mm
21:18 12.5 °C -0.1 °C 1022.9 hPa SW 3.7 km/h 3.7 km/h 42 % 0.0 mm
21:23 12.4 °C -0.2 °C 1022.9 hPa SW 3.7 km/h 3.7 km/h 42 % 0.0 mm
21:25 8.5 °C -1.6 °C 1020.9 hPa North 1.6 km/h 3.2 km/h 49 % 0.0 mm
21:28 12.3 °C -0.3 °C 1022.9 hPa SW 2.6 km/h 2.6 km/h 42 % 0.0 mm
21:33 12.2 °C 0.0 °C 1021.9 hPa WSW 3.9 km/h 3.9 km/h 43 % 0.0 mm
21:35 8.4 °C -1.4 °C 1020.9 hPa North 1.6 km/h 3.2 km/h 50 % 0.0 mm
21:38 12.3 °C 0.1 °C 1021.9 hPa WSW 7.4 km/h 7.4 km/h 43 % 0.0 mm
21:43 12.4 °C 0.4 °C 1021.9 hPa West 3.7 km/h 3.7 km/h 44 % 0.0 mm
21:45 8.2 °C -1.6 °C 1020.9 hPa Calm   1.6 km/h 50 % 0.0 mm
21:48 12.4 °C 0.4 °C 1021.9 hPa WSW 7.4 km/h 7.4 km/h 44 % 0.0 mm
21:50 8.1 °C -1.7 °C 1020.9 hPa North 1.6 km/h 1.6 km/h 50 % 0.0 mm
21:53 12.4 °C 0.4 °C 1021.9 hPa WSW 3.9 km/h 3.9 km/h 44 % 0.0 mm
22:00 8.0 °C -1.8 °C 1020.9 hPa NNW 1.6 km/h 3.2 km/h 50 % 0.0 mm
22:03 12.4 °C 0.8 °C 1021.9 hPa WSW 7.4 km/h 7.4 km/h 45 % 0.0 mm
22:08 12.2 °C 0.9 °C 1021.9 hPa WSW 5.6 km/h 5.6 km/h 46 % 0.0 mm
22:10 7.9 °C -1.9 °C 1020.9 hPa Calm   3.2 km/h 50 % 0.0 mm
22:13 12.1 °C 0.8 °C 1021.9 hPa SW 3.9 km/h 3.9 km/h 46 % 0.0 mm
22:18 11.9 °C 0.6 °C 1021.9 hPa WSW 4.2 km/h 4.2 km/h 46 % 0.0 mm
22:20 7.6 °C -1.9 °C 1020.9 hPa North 1.6 km/h 1.6 km/h 51 % 0.0 mm
22:23 11.8 °C 0.6 °C 1021.9 hPa West 3.7 km/h 3.7 km/h 46 % 0.0 mm
22:28 11.7 °C 0.4 °C 1021.9 hPa Calm     46 % 0.0 mm
22:30 7.6 °C -1.9 °C 1020.9 hPa North 1.6 km/h 3.2 km/h 51 % 0.0 mm
22:33 11.6 °C 0.3 °C 1022.9 hPa Calm     46 % 0.0 mm
22:38 11.6 °C 0.7 °C 1022.9 hPa Calm     47 % 0.0 mm
22:40 7.5 °C -2.0 °C 1019.9 hPa Calm   3.2 km/h 51 % 0.0 mm
22:43 11.5 °C 0.6 °C 1022.9 hPa Calm     47 % 0.0 mm
22:48 11.5 °C 0.6 °C 1021.9 hPa SW 1.9 km/h 1.9 km/h 47 % 0.0 mm
22:50 7.5 °C -2.0 °C 1019.9 hPa NNW 1.6 km/h 3.2 km/h 51 % 0.0 mm
22:53 11.6 °C 0.3 °C 1021.9 hPa WSW 3.7 km/h 3.7 km/h 46 % 0.0 mm
22:58 11.6 °C 0.7 °C 1021.9 hPa ENE 3.5 km/h 3.5 km/h 47 % 0.0 mm
23:00 7.4 °C -2.1 °C 1019.9 hPa NNW 1.6 km/h 3.2 km/h 51 % 0.0 mm
23:03 11.6 °C 0.7 °C 1022.9 hPa WSW 5.8 km/h 5.8 km/h 47 % 0.0 mm
23:08 11.7 °C 0.7 °C 1022.9 hPa West 6.4 km/h 6.4 km/h 47 % 0.0 mm
23:10 7.3 °C -2.2 °C 1019.9 hPa Calm   1.6 km/h 51 % 0.0 mm
23:20 7.2 °C -2.3 °C 1019.9 hPa Calm     51 % 0.0 mm
23:30 7.3 °C -2.2 °C 1019.9 hPa ESE 3.2 km/h 6.4 km/h 51 % 0.0 mm
23:40 7.5 °C -2.0 °C 1018.8 hPa ENE 4.8 km/h 6.4 km/h 51 % 0.0 mm
23:50 7.4 °C -2.1 °C 1019.9 hPa NE 4.8 km/h 6.4 km/h 51 % 0.0 mm
Meteo Sesrovires
Elogis d' Weather Underground - 3.5 mb

Guio original per  Jim McMurry - jmcmurry@mwt.net Adaptat per a la plantilla per  Wim van der Kuil - Leuven-Template.eu

Trobareu la nostra informacio del temps tambe a:

Weather Underground

AWEKAS